sensor_id;sensor_type;location;lat;lon;timestamp;pressure;altitude;pressure_sealevel;temperature;humidity
79142;BME280;68550;-26.480;29.234;2023-07-13T00:02:01;85321.37;;;17.15;31.59
79142;BME280;68550;-26.480;29.234;2023-07-13T00:04:33;85320.60;;;17.19;31.61
79142;BME280;68550;-26.480;29.234;2023-07-13T00:06:40;85323.63;;;17.26;31.46
79142;BME280;68550;-26.480;29.234;2023-07-13T00:09:29;85324.54;;;17.27;31.75
79142;BME280;68550;-26.480;29.234;2023-07-13T00:28:37;85315.51;;;17.53;31.46
79142;BME280;68550;-26.480;29.234;2023-07-13T00:40:22;85312.56;;;17.28;31.31
79142;BME280;68550;-26.480;29.234;2023-07-13T00:54:55;85303.87;;;17.13;31.20
79142;BME280;68550;-26.480;29.234;2023-07-13T01:04:31;85295.63;;;16.53;31.88
79142;BME280;68550;-26.480;29.234;2023-07-13T01:06:55;85295.78;;;16.97;31.42
79142;BME280;68550;-26.480;29.234;2023-07-13T01:09:21;85293.73;;;16.98;31.40
79142;BME280;68550;-26.480;29.234;2023-07-13T01:11:45;85291.40;;;16.80;31.29
79142;BME280;68550;-26.480;29.234;2023-07-13T01:14:10;85288.58;;;16.95;31.35
79142;BME280;68550;-26.480;29.234;2023-07-13T01:16:37;85287.49;;;16.90;31.27
79142;BME280;68550;-26.480;29.234;2023-07-13T01:19:09;85286.15;;;17.13;31.36
79142;BME280;68550;-26.480;29.234;2023-07-13T01:21:28;85283.57;;;16.84;31.36
79142;BME280;68550;-26.480;29.234;2023-07-13T01:23:53;85281.94;;;16.79;31.41
79142;BME280;68550;-26.480;29.234;2023-07-13T01:26:19;85281.54;;;16.89;31.29
79142;BME280;68550;-26.480;29.234;2023-07-13T01:28:44;85279.01;;;16.64;31.24
79142;BME280;68550;-26.480;29.234;2023-07-13T01:31:10;85278.31;;;16.81;31.30
79142;BME280;68550;-26.480;29.234;2023-07-13T01:33:37;85277.36;;;17.00;31.31
79142;BME280;68550;-26.480;29.234;2023-07-13T01:36:00;85277.84;;;16.96;31.37
79142;BME280;68550;-26.480;29.234;2023-07-13T01:38:25;85278.58;;;16.62;31.45
79142;BME280;68550;-26.480;29.234;2023-07-13T01:40:52;85279.34;;;16.64;31.45
79142;BME280;68550;-26.480;29.234;2023-07-13T01:43:16;85276.20;;;16.57;31.30
79142;BME280;68550;-26.480;29.234;2023-07-13T01:45:41;85275.02;;;16.63;31.23
79142;BME280;68550;-26.480;29.234;2023-07-13T01:48:06;85275.09;;;16.74;31.37
79142;BME280;68550;-26.480;29.234;2023-07-13T01:50:31;85273.92;;;16.86;31.27
79142;BME280;68550;-26.480;29.234;2023-07-13T01:52:56;85274.62;;;17.00;31.35
79142;BME280;68550;-26.480;29.234;2023-07-13T01:55:22;85274.02;;;17.04;31.31
79142;BME280;68550;-26.480;29.234;2023-07-13T01:57:48;85268.92;;;16.59;31.24
79142;BME280;68550;-26.480;29.234;2023-07-13T02:00:14;85270.29;;;16.46;31.32
79142;BME280;68550;-26.480;29.234;2023-07-13T02:02:39;85267.49;;;17.03;31.26
79142;BME280;68550;-26.480;29.234;2023-07-13T02:05:05;85264.86;;;16.96;31.24
79142;BME280;68550;-26.480;29.234;2023-07-13T02:07:30;85264.34;;;16.94;31.27
79142;BME280;68550;-26.480;29.234;2023-07-13T02:09:57;85263.62;;;16.72;31.23
79142;BME280;68550;-26.480;29.234;2023-07-13T02:12:20;85263.00;;;16.93;31.29
79142;BME280;68550;-26.480;29.234;2023-07-13T02:14:46;85262.99;;;16.76;31.19
79142;BME280;68550;-26.480;29.234;2023-07-13T02:17:11;85262.01;;;16.48;31.19
79142;BME280;68550;-26.480;29.234;2023-07-13T02:19:37;85263.27;;;16.98;31.12
79142;BME280;68550;-26.480;29.234;2023-07-13T02:22:04;85262.38;;;16.41;31.20
79142;BME280;68550;-26.480;29.234;2023-07-13T02:24:27;85264.58;;;16.72;31.09
79142;BME280;68550;-26.480;29.234;2023-07-13T02:26:53;85261.07;;;16.37;31.18
79142;BME280;68550;-26.480;29.234;2023-07-13T02:29:19;85258.58;;;16.67;31.13
79142;BME280;68550;-26.480;29.234;2023-07-13T02:31:46;85260.28;;;16.51;31.10
79142;BME280;68550;-26.480;29.234;2023-07-13T02:34:10;85256.77;;;16.45;31.16
79142;BME280;68550;-26.480;29.234;2023-07-13T02:36:35;85257.79;;;16.66;31.20
79142;BME280;68550;-26.480;29.234;2023-07-13T02:39:05;85256.90;;;16.96;31.00
79142;BME280;68550;-26.480;29.234;2023-07-13T02:41:26;85260.20;;;16.58;30.85
79142;BME280;68550;-26.480;29.234;2023-07-13T02:43:52;85259.81;;;16.54;30.86
79142;BME280;68550;-26.480;29.234;2023-07-13T02:46:20;85260.02;;;16.47;30.88
79142;BME280;68550;-26.480;29.234;2023-07-13T02:48:43;85260.44;;;16.42;30.95
79142;BME280;68550;-26.480;29.234;2023-07-13T02:51:09;85261.01;;;16.40;30.91
79142;BME280;68550;-26.480;29.234;2023-07-13T02:53:34;85258.80;;;16.70;30.83
79142;BME280;68550;-26.480;29.234;2023-07-13T02:56:00;85261.74;;;16.47;30.78
79142;BME280;68550;-26.480;29.234;2023-07-13T02:58:25;85262.28;;;16.81;30.90
79142;BME280;68550;-26.480;29.234;2023-07-13T03:00:51;85263.81;;;16.36;30.86
79142;BME280;68550;-26.480;29.234;2023-07-13T03:16:39;85276.32;;;16.41;30.97
79142;BME280;68550;-26.480;29.234;2023-07-13T03:19:07;85277.71;;;16.49;30.94
79142;BME280;68550;-26.480;29.234;2023-07-13T03:21:30;85277.54;;;16.67;30.83
79142;BME280;68550;-26.480;29.234;2023-07-13T03:23:56;85280.76;;;16.54;30.81
79142;BME280;68550;-26.480;29.234;2023-07-13T03:29:11;85279.27;;;16.60;30.60
79142;BME280;68550;-26.480;29.234;2023-07-13T03:36:23;85272.62;;;16.52;30.67
79142;BME280;68550;-26.480;29.234;2023-07-13T03:41:19;85273.62;;;16.57;30.54
79142;BME280;68550;-26.480;29.234;2023-07-13T03:48:36;85276.26;;;16.37;30.35
79142;BME280;68550;-26.480;29.234;2023-07-13T03:57:58;85278.35;;;16.48;30.17
79142;BME280;68550;-26.480;29.234;2023-07-13T04:00:18;85280.68;;;16.82;30.26
79142;BME280;68550;-26.480;29.234;2023-07-13T04:02:43;85281.69;;;16.95;30.09
79142;BME280;68550;-26.480;29.234;2023-07-13T04:05:11;85284.34;;;16.34;30.23
79142;BME280;68550;-26.480;29.234;2023-07-13T04:07:35;85284.62;;;16.36;30.18
79142;BME280;68550;-26.480;29.234;2023-07-13T04:12:26;85287.05;;;16.68;30.40
79142;BME280;68550;-26.480;29.234;2023-07-13T04:14:51;85287.27;;;16.00;30.63
79142;BME280;68550;-26.480;29.234;2023-07-13T04:17:17;85286.95;;;16.63;30.49
79142;BME280;68550;-26.480;29.234;2023-07-13T04:19:45;85290.92;;;16.00;30.52
79142;BME280;68550;-26.480;29.234;2023-07-13T04:22:08;85291.67;;;16.10;30.30
79142;BME280;68550;-26.480;29.234;2023-07-13T04:24:57;85293.40;;;16.27;30.36
79142;BME280;68550;-26.480;29.234;2023-07-13T04:27:22;85294.90;;;16.56;30.29
79142;BME280;68550;-26.480;29.234;2023-07-13T04:29:41;85298.45;;;16.35;30.21
79142;BME280;68550;-26.480;29.234;2023-07-13T04:36:54;85301.55;;;16.14;30.13
79142;BME280;68550;-26.480;29.234;2023-07-13T04:39:22;85302.83;;;16.57;30.17
79142;BME280;68550;-26.480;29.234;2023-07-13T04:41:39;85305.08;;;16.33;30.18
79142;BME280;68550;-26.480;29.234;2023-07-13T04:44:02;85308.69;;;15.71;29.74
79142;BME280;68550;-26.480;29.234;2023-07-13T04:46:25;85310.88;;;15.50;28.09
79142;BME280;68550;-26.480;29.234;2023-07-13T04:48:50;85314.84;;;15.15;28.75
79142;BME280;68550;-26.480;29.234;2023-07-13T04:51:14;85314.79;;;15.62;29.75
79142;BME280;68550;-26.480;29.234;2023-07-13T04:53:40;85314.87;;;15.70;30.30
79142;BME280;68550;-26.480;29.234;2023-07-13T04:56:05;85312.98;;;15.66;30.20
79142;BME280;68550;-26.480;29.234;2023-07-13T05:01:31;85319.11;;;15.37;29.35
79142;BME280;68550;-26.480;29.234;2023-07-13T05:04:51;85321.11;;;15.32;31.26
79142;BME280;68550;-26.480;29.234;2023-07-13T05:07:17;85320.37;;;15.68;30.86
79142;BME280;68550;-26.480;29.234;2023-07-13T05:09:43;85320.11;;;15.79;30.90
79142;BME280;68550;-26.480;29.234;2023-07-13T05:12:10;85318.70;;;15.90;30.65
79142;BME280;68550;-26.480;29.234;2023-07-13T05:14:34;85316.81;;;16.28;30.78
79142;BME280;68550;-26.480;29.234;2023-07-13T05:16:59;85315.60;;;15.82;31.01
79142;BME280;68550;-26.480;29.234;2023-07-13T05:19:26;85317.24;;;15.55;29.93
79142;BME280;68550;-26.480;29.234;2023-07-13T05:21:53;85315.01;;;14.67;29.31
79142;BME280;68550;-26.480;29.234;2023-07-13T05:24:15;85316.37;;;14.89;30.37
79142;BME280;68550;-26.480;29.234;2023-07-13T05:26:43;85317.98;;;14.77;29.48
79142;BME280;68550;-26.480;29.234;2023-07-13T05:29:07;85317.52;;;14.70;29.99
79142;BME280;68550;-26.480;29.234;2023-07-13T05:31:32;85317.62;;;15.06;31.07
79142;BME280;68550;-26.480;29.234;2023-07-13T05:33:57;85318.00;;;15.33;31.22
79142;BME280;68550;-26.480;29.234;2023-07-13T05:36:23;85320.35;;;15.47;31.08
79142;BME280;68550;-26.480;29.234;2023-07-13T05:38:49;85318.18;;;15.40;30.94
79142;BME280;68550;-26.480;29.234;2023-07-13T05:41:15;85314.13;;;15.59;30.69
79142;BME280;68550;-26.480;29.234;2023-07-13T05:43:39;85314.98;;;15.43;30.68
79142;BME280;68550;-26.480;29.234;2023-07-13T05:46:05;85312.29;;;15.96;30.68
79142;BME280;68550;-26.480;29.234;2023-07-13T05:48:36;85313.00;;;15.71;30.75
79142;BME280;68550;-26.480;29.234;2023-07-13T05:50:56;85314.80;;;15.59;30.73
79142;BME280;68550;-26.480;29.234;2023-07-13T05:53:22;85314.54;;;15.93;30.66
79142;BME280;68550;-26.480;29.234;2023-07-13T05:55:48;85316.55;;;15.73;30.67
79142;BME280;68550;-26.480;29.234;2023-07-13T05:58:12;85316.17;;;16.10;30.58
79142;BME280;68550;-26.480;29.234;2023-07-13T06:00:41;85319.12;;;15.61;30.94
79142;BME280;68550;-26.480;29.234;2023-07-13T06:03:03;85322.44;;;15.57;31.15
79142;BME280;68550;-26.480;29.234;2023-07-13T06:05:29;85318.67;;;15.93;30.80
79142;BME280;68550;-26.480;29.234;2023-07-13T06:07:55;85327.49;;;16.01;30.72
79142;BME280;68550;-26.480;29.234;2023-07-13T06:10:20;85329.04;;;16.07;30.68
79142;BME280;68550;-26.480;29.234;2023-07-13T06:12:46;85331.90;;;16.35;30.94
79142;BME280;68550;-26.480;29.234;2023-07-13T06:15:13;85335.11;;;16.23;30.57
79142;BME280;68550;-26.480;29.234;2023-07-13T06:17:37;85335.97;;;16.08;30.63
79142;BME280;68550;-26.480;29.234;2023-07-13T06:20:03;85339.57;;;16.25;30.72
79142;BME280;68550;-26.480;29.234;2023-07-13T06:22:28;85340.84;;;16.53;30.63
79142;BME280;68550;-26.480;29.234;2023-07-13T06:24:54;85344.12;;;16.53;30.78
79142;BME280;68550;-26.480;29.234;2023-07-13T06:27:19;85343.76;;;16.47;30.65
79142;BME280;68550;-26.480;29.234;2023-07-13T06:29:45;85348.36;;;15.73;31.31
79142;BME280;68550;-26.480;29.234;2023-07-13T06:32:10;85347.53;;;16.48;31.05
79142;BME280;68550;-26.480;29.234;2023-07-13T06:34:36;85346.65;;;16.73;30.93
79142;BME280;68550;-26.480;29.234;2023-07-13T06:37:01;85348.45;;;16.77;31.14
79142;BME280;68550;-26.480;29.234;2023-07-13T06:39:26;85349.75;;;16.62;31.17
79142;BME280;68550;-26.480;29.234;2023-07-13T06:41:55;85350.97;;;16.63;31.34
79142;BME280;68550;-26.480;29.234;2023-07-13T06:44:17;85355.35;;;16.86;31.29
79142;BME280;68550;-26.480;29.234;2023-07-13T06:46:43;85361.23;;;16.84;31.47
79142;BME280;68550;-26.480;29.234;2023-07-13T06:49:09;85363.27;;;16.83;31.60
79142;BME280;68550;-26.480;29.234;2023-07-13T06:51:34;85361.94;;;16.85;31.73
79142;BME280;68550;-26.480;29.234;2023-07-13T06:54:04;85362.21;;;16.56;31.99
79142;BME280;68550;-26.480;29.234;2023-07-13T06:56:25;85361.29;;;16.52;32.36
79142;BME280;68550;-26.480;29.234;2023-07-13T06:58:50;85359.29;;;17.02;31.65
79142;BME280;68550;-26.480;29.234;2023-07-13T07:01:18;85361.72;;;17.05;31.59
79142;BME280;68550;-26.480;29.234;2023-07-13T07:03:43;85362.55;;;16.99;31.66
79142;BME280;68550;-26.480;29.234;2023-07-13T07:06:14;85364.26;;;16.12;33.51
79142;BME280;68550;-26.480;29.234;2023-07-13T07:08:33;85361.93;;;16.78;32.43
79142;BME280;68550;-26.480;29.234;2023-07-13T07:10:57;85361.50;;;16.95;32.14
79142;BME280;68550;-26.480;29.234;2023-07-13T07:13:24;85361.34;;;17.08;31.93
79142;BME280;68550;-26.480;29.234;2023-07-13T07:15:50;85361.30;;;17.14;31.84
79142;BME280;68550;-26.480;29.234;2023-07-13T07:18:14;85354.31;;;17.07;31.91
79142;BME280;68550;-26.480;29.234;2023-07-13T07:20:39;85360.69;;;16.66;32.40
79142;BME280;68550;-26.480;29.234;2023-07-13T07:23:07;85361.06;;;17.02;31.97
79142;BME280;68550;-26.480;29.234;2023-07-13T07:25:31;85363.42;;;16.89;32.50
79142;BME280;68550;-26.480;29.234;2023-07-13T07:27:57;85365.97;;;15.45;34.50
79142;BME280;68550;-26.480;29.234;2023-07-13T07:30:22;85366.36;;;16.08;33.74
79142;BME280;68550;-26.480;29.234;2023-07-13T07:32:46;85366.88;;;15.60;34.09
79142;BME280;68550;-26.480;29.234;2023-07-13T07:35:12;85369.72;;;14.54;36.05
79142;BME280;68550;-26.480;29.234;2023-07-13T07:37:37;85364.64;;;15.26;34.99
79142;BME280;68550;-26.480;29.234;2023-07-13T07:40:03;85360.13;;;16.44;33.34
79142;BME280;68550;-26.480;29.234;2023-07-13T07:42:28;85364.33;;;15.88;34.09
79142;BME280;68550;-26.480;29.234;2023-07-13T07:44:53;85364.37;;;15.73;34.18
79142;BME280;68550;-26.480;29.234;2023-07-13T07:47:19;85364.27;;;17.38;32.51
79142;BME280;68550;-26.480;29.234;2023-07-13T07:49:45;85357.76;;;17.54;32.03
79142;BME280;68550;-26.480;29.234;2023-07-13T07:52:10;85360.36;;;17.82;31.75
79142;BME280;68550;-26.480;29.234;2023-07-13T07:54:36;85356.89;;;17.72;31.68
79142;BME280;68550;-26.480;29.234;2023-07-13T07:57:01;85358.59;;;17.79;31.97
79142;BME280;68550;-26.480;29.234;2023-07-13T07:59:27;85355.62;;;18.26;31.73
79142;BME280;68550;-26.480;29.234;2023-07-13T08:04:18;85358.31;;;17.52;32.22
79142;BME280;68550;-26.480;29.234;2023-07-13T08:06:43;85360.48;;;17.84;32.24
79142;BME280;68550;-26.480;29.234;2023-07-13T08:09:09;85359.45;;;17.85;32.10
79142;BME280;68550;-26.480;29.234;2023-07-13T08:11:34;85360.22;;;17.62;32.42
79142;BME280;68550;-26.480;29.234;2023-07-13T08:14:01;85358.39;;;18.12;31.93
79142;BME280;68550;-26.480;29.234;2023-07-13T08:16:26;85351.08;;;17.58;32.21
79142;BME280;68550;-26.480;29.234;2023-07-13T08:18:51;85353.82;;;18.06;32.09
79142;BME280;68550;-26.480;29.234;2023-07-13T08:21:17;85355.20;;;18.20;32.11
79142;BME280;68550;-26.480;29.234;2023-07-13T08:23:42;85350.96;;;17.94;32.71
79142;BME280;68550;-26.480;29.234;2023-07-13T08:26:09;85351.29;;;17.92;33.45
79142;BME280;68550;-26.480;29.234;2023-07-13T08:28:34;85348.36;;;18.27;34.49
79142;BME280;68550;-26.480;29.234;2023-07-13T08:31:02;85345.28;;;17.95;33.80
79142;BME280;68550;-26.480;29.234;2023-07-13T08:33:25;85344.25;;;18.21;34.18
79142;BME280;68550;-26.480;29.234;2023-07-13T08:35:50;85346.00;;;18.12;34.04
79142;BME280;68550;-26.480;29.234;2023-07-13T08:38:15;85343.47;;;18.20;33.72
79142;BME280;68550;-26.480;29.234;2023-07-13T08:40:40;85340.35;;;17.98;33.66
79142;BME280;68550;-26.480;29.234;2023-07-13T08:43:12;85343.81;;;16.99;34.91
79142;BME280;68550;-26.480;29.234;2023-07-13T08:45:33;85338.43;;;18.02;34.43
79142;BME280;68550;-26.480;29.234;2023-07-13T08:48:02;85338.93;;;16.09;36.74
79142;BME280;68550;-26.480;29.234;2023-07-13T08:50:27;85334.41;;;17.37;34.64
79142;BME280;68550;-26.480;29.234;2023-07-13T08:52:47;85330.69;;;18.17;34.28
79142;BME280;68550;-26.480;29.234;2023-07-13T08:55:15;85326.70;;;18.29;34.17
79142;BME280;68550;-26.480;29.234;2023-07-13T08:57:38;85319.64;;;18.09;34.00
79142;BME280;68550;-26.480;29.234;2023-07-13T09:00:05;85314.16;;;18.29;34.09
79142;BME280;68550;-26.480;29.234;2023-07-13T09:02:34;85311.16;;;18.35;33.99
79142;BME280;68550;-26.480;29.234;2023-07-13T09:04:59;85306.30;;;18.26;34.08
79142;BME280;68550;-26.480;29.234;2023-07-13T09:07:29;85305.04;;;17.74;34.32
79142;BME280;68550;-26.480;29.234;2023-07-13T09:09:55;85304.64;;;17.61;35.50
79142;BME280;68550;-26.480;29.234;2023-07-13T09:12:17;85305.98;;;17.92;35.98
79142;BME280;68550;-26.480;29.234;2023-07-13T09:14:43;85305.55;;;17.78;35.36
79142;BME280;68550;-26.480;29.234;2023-07-13T09:17:03;85305.45;;;17.97;34.25
79142;BME280;68550;-26.480;29.234;2023-07-13T09:19:30;85301.08;;;18.09;34.01
79142;BME280;68550;-26.480;29.234;2023-07-13T09:21:55;85296.17;;;17.52;34.56
79142;BME280;68550;-26.480;29.234;2023-07-13T09:24:28;85290.67;;;17.90;34.25
79142;BME280;68550;-26.480;29.234;2023-07-13T09:26:43;85288.84;;;18.25;33.89
79142;BME280;68550;-26.480;29.234;2023-07-13T09:29:16;85284.87;;;17.89;33.87
79142;BME280;68550;-26.480;29.234;2023-07-13T09:31:37;85287.57;;;17.85;33.64
79142;BME280;68550;-26.480;29.234;2023-07-13T09:34:01;85278.42;;;18.34;33.07
79142;BME280;68550;-26.480;29.234;2023-07-13T09:36:28;85277.83;;;18.26;33.02
79142;BME280;68550;-26.480;29.234;2023-07-13T09:38:57;85273.47;;;17.90;33.24
79142;BME280;68550;-26.480;29.234;2023-07-13T09:41:21;85272.98;;;17.63;33.61
79142;BME280;68550;-26.480;29.234;2023-07-13T09:48:35;85254.07;;;17.90;33.82
79142;BME280;68550;-26.480;29.234;2023-07-13T09:50:57;85250.11;;;18.20;33.46
79142;BME280;68550;-26.480;29.234;2023-07-13T09:53:22;85240.89;;;18.14;33.54
79142;BME280;68550;-26.480;29.234;2023-07-13T09:55:48;85241.27;;;18.10;33.54
79142;BME280;68550;-26.480;29.234;2023-07-13T09:58:14;85233.07;;;18.35;34.31
79142;BME280;68550;-26.480;29.234;2023-07-13T10:00:43;85225.28;;;18.36;35.28
79142;BME280;68550;-26.480;29.234;2023-07-13T10:03:05;85220.86;;;18.22;35.45
79142;BME280;68550;-26.480;29.234;2023-07-13T10:05:29;85219.31;;;18.44;35.87
79142;BME280;68550;-26.480;29.234;2023-07-13T10:07:56;85222.07;;;18.48;36.06
79142;BME280;68550;-26.480;29.234;2023-07-13T10:10:22;85219.15;;;18.66;36.20
79142;BME280;68550;-26.480;29.234;2023-07-13T10:12:48;85212.91;;;18.07;37.34
79142;BME280;68550;-26.480;29.234;2023-07-13T10:15:17;85213.37;;;17.78;37.40
79142;BME280;68550;-26.480;29.234;2023-07-13T10:17:36;85204.44;;;17.30;36.94
79142;BME280;68550;-26.480;29.234;2023-07-13T10:20:04;85193.71;;;18.16;36.64
79142;BME280;68550;-26.480;29.234;2023-07-13T10:22:34;85189.24;;;18.24;36.50
79142;BME280;68550;-26.480;29.234;2023-07-13T10:24:56;85184.44;;;18.03;36.20
79142;BME280;68550;-26.480;29.234;2023-07-13T10:27:20;85180.48;;;18.32;36.67
79142;BME280;68550;-26.480;29.234;2023-07-13T10:29:50;85176.67;;;18.45;36.78
79142;BME280;68550;-26.480;29.234;2023-07-13T10:32:10;85173.20;;;18.78;37.31
79142;BME280;68550;-26.480;29.234;2023-07-13T10:34:34;85167.93;;;18.52;38.07
79142;BME280;68550;-26.480;29.234;2023-07-13T10:37:05;85161.86;;;18.62;39.05
79142;BME280;68550;-26.480;29.234;2023-07-13T10:39:28;85152.69;;;18.54;39.60
79142;BME280;68550;-26.480;29.234;2023-07-13T10:41:54;85156.69;;;18.19;39.83
79142;BME280;68550;-26.480;29.234;2023-07-13T10:44:21;85155.00;;;18.72;38.81
79142;BME280;68550;-26.480;29.234;2023-07-13T10:46:42;85155.26;;;18.35;39.05
79142;BME280;68550;-26.480;29.234;2023-07-13T10:49:12;85143.26;;;18.88;38.33
79142;BME280;68550;-26.480;29.234;2023-07-13T10:51:33;85146.47;;;17.96;38.42
79142;BME280;68550;-26.480;29.234;2023-07-13T10:54:15;85143.08;;;18.77;37.56
79142;BME280;68550;-26.480;29.234;2023-07-13T10:56:28;85141.53;;;18.17;37.73
79142;BME280;68550;-26.480;29.234;2023-07-13T11:01:17;85145.91;;;18.01;36.88
79142;BME280;68550;-26.480;29.234;2023-07-13T11:03:48;85140.53;;;18.00;36.36
79142;BME280;68550;-26.480;29.234;2023-07-13T11:06:09;85129.49;;;18.25;35.83
79142;BME280;68550;-26.480;29.234;2023-07-13T11:08:35;85128.71;;;18.20;36.47
79142;BME280;68550;-26.480;29.234;2023-07-13T11:15:50;85116.89;;;17.55;36.66
79142;BME280;68550;-26.480;29.234;2023-07-13T11:18:20;85115.88;;;17.89;36.10
79142;BME280;68550;-26.480;29.234;2023-07-13T11:20:40;85120.01;;;18.20;35.52
79142;BME280;68550;-26.480;29.234;2023-07-13T11:25:49;85112.64;;;18.39;34.63
79142;BME280;68550;-26.480;29.234;2023-07-13T11:28:14;85105.45;;;18.33;34.35
79142;BME280;68550;-26.480;29.234;2023-07-13T11:32:51;85092.15;;;18.42;33.78
79142;BME280;68550;-26.480;29.234;2023-07-13T11:44:55;85085.87;;;18.29;33.02
79142;BME280;68550;-26.480;29.234;2023-07-13T11:47:22;85076.12;;;18.78;32.97
79142;BME280;68550;-26.480;29.234;2023-07-13T11:49:52;85070.52;;;18.46;32.94
79142;BME280;68550;-26.480;29.234;2023-07-13T11:52:14;85069.78;;;18.63;32.96
79142;BME280;68550;-26.480;29.234;2023-07-13T11:54:47;85071.02;;;18.57;33.02
79142;BME280;68550;-26.480;29.234;2023-07-13T11:57:10;85068.52;;;18.60;32.76
79142;BME280;68550;-26.480;29.234;2023-07-13T12:01:54;85065.09;;;18.37;32.71
79142;BME280;68550;-26.480;29.234;2023-07-13T12:04:24;85055.84;;;18.35;32.75
79142;BME280;68550;-26.480;29.234;2023-07-13T12:06:45;85057.63;;;18.57;32.62
79142;BME280;68550;-26.480;29.234;2023-07-13T12:09:14;85058.10;;;18.64;32.69
79142;BME280;68550;-26.480;29.234;2023-07-13T12:11:36;85051.30;;;18.40;32.70
79142;BME280;68550;-26.480;29.234;2023-07-13T12:14:01;85053.89;;;18.49;32.81
79142;BME280;68550;-26.480;29.234;2023-07-13T12:16:29;85052.08;;;18.12;32.88
79142;BME280;68550;-26.480;29.234;2023-07-13T12:28:35;85045.24;;;18.68;32.53
79142;BME280;68550;-26.480;29.234;2023-07-13T12:31:03;85043.86;;;18.53;32.39
79142;BME280;68550;-26.480;29.234;2023-07-13T12:33:29;85039.36;;;18.58;32.70
79142;BME280;68550;-26.480;29.234;2023-07-13T12:35:51;85036.21;;;18.57;32.78
79142;BME280;68550;-26.480;29.234;2023-07-13T12:38:17;85032.42;;;18.45;32.98
79142;BME280;68550;-26.480;29.234;2023-07-13T12:43:12;85032.22;;;18.58;32.93
79142;BME280;68550;-26.480;29.234;2023-07-13T12:45:34;85028.56;;;18.58;32.96
79142;BME280;68550;-26.480;29.234;2023-07-13T12:48:03;85028.17;;;18.53;32.89
79142;BME280;68550;-26.480;29.234;2023-07-13T12:50:37;85029.23;;;18.49;32.88
79142;BME280;68550;-26.480;29.234;2023-07-13T12:52:52;85027.04;;;18.38;32.85
79142;BME280;68550;-26.480;29.234;2023-07-13T12:55:18;85023.81;;;18.41;32.79
79142;BME280;68550;-26.480;29.234;2023-07-13T12:57:43;85023.44;;;18.35;32.62
79142;BME280;68550;-26.480;29.234;2023-07-13T13:00:20;85019.23;;;18.36;32.23
79142;BME280;68550;-26.480;29.234;2023-07-13T13:03:53;85017.36;;;17.89;33.02
79142;BME280;68550;-26.480;29.234;2023-07-13T13:06:23;85020.90;;;18.23;32.66
79142;BME280;68550;-26.480;29.234;2023-07-13T13:08:45;85022.29;;;18.36;32.41
79142;BME280;68550;-26.480;29.234;2023-07-13T13:11:15;85022.09;;;18.12;32.35
79142;BME280;68550;-26.480;29.234;2023-07-13T13:13:35;85020.72;;;18.41;32.31
79142;BME280;68550;-26.480;29.234;2023-07-13T13:16:04;85016.78;;;18.36;32.20
79142;BME280;68550;-26.480;29.234;2023-07-13T13:18:26;85017.82;;;18.24;32.33
79142;BME280;68550;-26.480;29.234;2023-07-13T13:20:52;85019.31;;;18.55;31.55
79142;BME280;68550;-26.480;29.234;2023-07-13T13:23:19;85016.78;;;18.28;32.03
79142;BME280;68550;-26.480;29.234;2023-07-13T13:25:44;85015.33;;;18.63;31.96
79142;BME280;68550;-26.480;29.234;2023-07-13T13:28:14;85016.20;;;18.34;31.86
79142;BME280;68550;-26.480;29.234;2023-07-13T13:30:34;85019.26;;;18.42;31.74
79142;BME280;68550;-26.480;29.234;2023-07-13T13:32:59;85016.60;;;18.05;31.37
79142;BME280;68550;-26.480;29.234;2023-07-13T13:35:24;85019.95;;;18.33;31.76
79142;BME280;68550;-26.480;29.234;2023-07-13T13:37:49;85019.01;;;18.39;31.53
79142;BME280;68550;-26.480;29.234;2023-07-13T13:40:17;85020.60;;;18.41;31.31
79142;BME280;68550;-26.480;29.234;2023-07-13T13:42:41;85021.72;;;18.25;31.28
79142;BME280;68550;-26.480;29.234;2023-07-13T13:45:08;85020.89;;;18.25;31.39
79142;BME280;68550;-26.480;29.234;2023-07-13T13:47:33;85023.43;;;18.36;31.44
79142;BME280;68550;-26.480;29.234;2023-07-13T13:50:01;85023.29;;;18.56;31.57
79142;BME280;68550;-26.480;29.234;2023-07-13T13:52:26;85026.58;;;18.33;31.49
79142;BME280;68550;-26.480;29.234;2023-07-13T13:54:49;85027.20;;;18.42;31.23
79142;BME280;68550;-26.480;29.234;2023-07-13T13:57:15;85031.12;;;18.56;31.59
79142;BME280;68550;-26.480;29.234;2023-07-13T13:59:40;85034.72;;;18.35;31.34
79142;BME280;68550;-26.480;29.234;2023-07-13T14:02:21;85032.82;;;18.21;31.56
79142;BME280;68550;-26.480;29.234;2023-07-13T14:04:31;85035.56;;;18.31;31.31
79142;BME280;68550;-26.480;29.234;2023-07-13T14:06:56;85037.80;;;18.34;31.37
79142;BME280;68550;-26.480;29.234;2023-07-13T14:09:22;85036.71;;;17.92;31.87
79142;BME280;68550;-26.480;29.234;2023-07-13T14:11:52;85039.03;;;18.32;31.40
79142;BME280;68550;-26.480;29.234;2023-07-13T14:14:16;85042.73;;;18.35;31.21
79142;BME280;68550;-26.480;29.234;2023-07-13T14:16:39;85043.43;;;18.44;31.22
79142;BME280;68550;-26.480;29.234;2023-07-13T14:19:04;85043.65;;;18.38;31.26
79142;BME280;68550;-26.480;29.234;2023-07-13T14:21:31;85040.28;;;18.45;31.21
79142;BME280;68550;-26.480;29.234;2023-07-13T14:23:56;85042.15;;;18.41;31.34
79142;BME280;68550;-26.480;29.234;2023-07-13T14:26:25;85042.68;;;18.47;31.32
79142;BME280;68550;-26.480;29.234;2023-07-13T14:28:49;85043.39;;;18.41;31.36
79142;BME280;68550;-26.480;29.234;2023-07-13T14:31:14;85040.37;;;18.43;31.24
79142;BME280;68550;-26.480;29.234;2023-07-13T14:33:38;85045.70;;;18.35;31.36
79142;BME280;68550;-26.480;29.234;2023-07-13T14:36:05;85047.16;;;18.27;31.38
79142;BME280;68550;-26.480;29.234;2023-07-13T14:38:29;85049.91;;;18.37;31.30
79142;BME280;68550;-26.480;29.234;2023-07-13T14:40:54;85050.75;;;18.36;31.30
79142;BME280;68550;-26.480;29.234;2023-07-13T14:43:20;85053.06;;;18.35;31.25
79142;BME280;68550;-26.480;29.234;2023-07-13T14:45:47;85054.85;;;18.35;31.20
79142;BME280;68550;-26.480;29.234;2023-07-13T14:48:17;85057.77;;;18.30;31.26